FLY9 NZNR-NZWN
Flight info
| Callsign | FLY9 |
|---|---|
| Flight time | 0h 57m |
| Altitude | 30000 |
| Route | NIXOT H103 RIDLA H201 PM V242 DOGAD |
| Aircraft | C25C/M-SDE2E3FGHRWXY/LB1 |
Departure
| Time | 2026-04-25 05:03 |
|---|---|
| Airport | Hawke's Bay Airport (NZNR) |
Arrival
| Time | 2026-04-25 06:00 |
|---|---|
| Airport | Wellington International Airport (NZWN) |
| Time | Latitude | Longitude | Altitude | Speed | Heading |
|---|---|---|---|---|---|
| 2026-04-25 04:20 | -39.46520 | 176.87240 | 15 ft | 0 kts | 147° |
| 2026-04-25 04:22 | -39.46520 | 176.87241 | 15 ft | 0 kts | 142° |
| 2026-04-25 04:59 | -39.46533 | 176.87236 | 9 ft | 9 kts | 219° |
| 2026-04-25 04:59 | -39.46653 | 176.87093 | 8 ft | 36 kts | 226° |
| 2026-04-25 04:59 | -39.46658 | 176.86805 | 8 ft | 29 kts | 274° |
| 2026-04-25 04:59 | -39.46766 | 176.86741 | 8 ft | 31 kts | 185° |
| 2026-04-25 05:00 | -39.47127 | 176.86705 | 6 ft | 71 kts | 188° |
| 2026-04-25 05:00 | -39.47586 | 176.86653 | 6 ft | 57 kts | 176° |
| 2026-04-25 05:00 | -39.47739 | 176.86608 | 8 ft | 7 kts | 354° |
| 2026-04-25 05:00 | -39.47706 | 176.86635 | 8 ft | 6 kts | 9° |
| 2026-04-25 05:01 | -39.47673 | 176.86639 | 8 ft | 0 kts | 6° |
| 2026-04-25 05:02 | -39.47664 | 176.86640 | 6 ft | 16 kts | 3° |
| 2026-04-25 05:02 | -39.47165 | 176.86694 | 5 ft | 124 kts | 4° |
| 2026-04-25 05:03 | -39.46026 | 176.86821 | 280 ft | 192 kts | 6° |
| 2026-04-25 05:03 | -39.44580 | 176.87058 | 1526 ft | 224 kts | 16° |
| 2026-04-25 05:03 | -39.43340 | 176.88311 | 3337 ft | 235 kts | 52° |
| 2026-04-25 05:03 | -39.42755 | 176.90308 | 5161 ft | 247 kts | 89° |
| 2026-04-25 05:04 | -39.43279 | 176.92380 | 7035 ft | 247 kts | 127° |
| 2026-04-25 05:04 | -39.44450 | 176.94013 | 8032 ft | 254 kts | 136° |
| 2026-04-25 05:04 | -39.45796 | 176.95608 | 8904 ft | 262 kts | 137° |
| 2026-04-25 05:04 | -39.47154 | 176.97173 | 9973 ft | 263 kts | 144° |
| 2026-04-25 05:05 | -39.48932 | 176.97950 | 10005 ft | 283 kts | 174° |
| 2026-04-25 05:05 | -39.50954 | 176.97883 | 10014 ft | 298 kts | 183° |
| 2026-04-25 05:05 | -39.52960 | 176.97088 | 10000 ft | 312 kts | 211° |
| 2026-04-25 05:05 | -39.54582 | 176.95154 | 10004 ft | 323 kts | 228° |
| 2026-04-25 05:06 | -39.55968 | 176.92859 | 10214 ft | 324 kts | 232° |
| 2026-04-25 05:06 | -39.57321 | 176.90484 | 11099 ft | 325 kts | 231° |
| 2026-04-25 05:06 | -39.58719 | 176.88186 | 12743 ft | 327 kts | 230° |
| 2026-04-25 05:06 | -39.60171 | 176.85850 | 14162 ft | 335 kts | 230° |
| 2026-04-25 05:07 | -39.61632 | 176.83465 | 15428 ft | 343 kts | 231° |
| 2026-04-25 05:07 | -39.63120 | 176.81009 | 16687 ft | 350 kts | 230° |
| 2026-04-25 05:07 | -39.64642 | 176.78495 | 17907 ft | 358 kts | 230° |
| 2026-04-25 05:07 | -39.66206 | 176.75934 | 19022 ft | 366 kts | 230° |
| 2026-04-25 05:08 | -39.67798 | 176.73312 | 20011 ft | 374 kts | 230° |
| 2026-04-25 05:08 | -39.69423 | 176.70638 | 20984 ft | 381 kts | 230° |
| 2026-04-25 05:08 | -39.71076 | 176.67909 | 21950 ft | 388 kts | 230° |
| 2026-04-25 05:08 | -39.72762 | 176.65126 | 22886 ft | 395 kts | 230° |
| 2026-04-25 05:09 | -39.74475 | 176.62300 | 23782 ft | 402 kts | 229° |
| 2026-04-25 05:09 | -39.76215 | 176.59419 | 24538 ft | 407 kts | 229° |
| 2026-04-25 05:09 | -39.77973 | 176.56513 | 25292 ft | 411 kts | 229° |
| 2026-04-25 05:09 | -39.79744 | 176.53575 | 25998 ft | 415 kts | 229° |
| 2026-04-25 05:10 | -39.81537 | 176.50608 | 26674 ft | 419 kts | 229° |
| 2026-04-25 05:10 | -39.83342 | 176.47610 | 27313 ft | 422 kts | 229° |
| 2026-04-25 05:10 | -39.85253 | 176.44713 | 27910 ft | 422 kts | 219° |
| 2026-04-25 05:10 | -39.87528 | 176.42302 | 28482 ft | 423 kts | 216° |
| 2026-04-25 05:11 | -39.89812 | 176.39864 | 29041 ft | 426 kts | 216° |
| 2026-04-25 05:11 | -39.92110 | 176.37408 | 29559 ft | 429 kts | 216° |
| 2026-04-25 05:11 | -39.94420 | 176.34938 | 30039 ft | 431 kts | 216° |
| 2026-04-25 05:12 | -39.98973 | 176.29600 | 30253 ft | 452 kts | 225° |
| 2026-04-25 05:12 | -40.00909 | 176.26399 | 30255 ft | 451 kts | 232° |
| 2026-04-25 05:12 | -40.04335 | 176.19571 | 30254 ft | 447 kts | 233° |
| 2026-04-25 05:13 | -40.07716 | 176.12811 | 30257 ft | 443 kts | 233° |
| 2026-04-25 05:13 | -40.11071 | 176.06093 | 30255 ft | 440 kts | 233° |
| 2026-04-25 05:14 | -40.14405 | 175.99399 | 30254 ft | 439 kts | 233° |
| 2026-04-25 05:15 | -40.19380 | 175.89384 | 30254 ft | 437 kts | 234° |
| 2026-04-25 05:15 | -40.22679 | 175.82730 | 30257 ft | 435 kts | 234° |
| 2026-04-25 05:16 | -40.25942 | 175.76132 | 30256 ft | 435 kts | 233° |
| 2026-04-25 05:16 | -40.29292 | 175.69545 | 30257 ft | 432 kts | 229° |
| 2026-04-25 05:17 | -40.33512 | 175.64045 | 30256 ft | 426 kts | 215° |
| 2026-04-25 05:17 | -40.38592 | 175.60092 | 30258 ft | 420 kts | 200° |
| 2026-04-25 05:18 | -40.43931 | 175.57087 | 30254 ft | 420 kts | 200° |
| 2026-04-25 05:18 | -40.49301 | 175.54056 | 30259 ft | 420 kts | 200° |
| 2026-04-25 05:19 | -40.53802 | 175.51513 | 30264 ft | 420 kts | 201° |
| 2026-04-25 05:19 | -40.59172 | 175.48471 | 30258 ft | 421 kts | 201° |
| 2026-04-25 05:20 | -40.65423 | 175.44924 | 30258 ft | 421 kts | 201° |
| 2026-04-25 05:20 | -40.70799 | 175.41865 | 30255 ft | 421 kts | 201° |
| 2026-04-25 05:21 | -40.75306 | 175.39300 | 30258 ft | 421 kts | 201° |
| 2026-04-25 05:21 | -40.80677 | 175.36237 | 30259 ft | 420 kts | 201° |
| 2026-04-25 05:22 | -40.86042 | 175.33174 | 30251 ft | 420 kts | 201° |
| 2026-04-25 05:22 | -40.91372 | 175.30121 | 30256 ft | 420 kts | 201° |
| 2026-04-25 05:23 | -40.96650 | 175.27094 | 30260 ft | 401 kts | 201° |
| 2026-04-25 05:23 | -40.99179 | 175.25640 | 30250 ft | 390 kts | 201° |
| 2026-04-25 05:23 | -41.01638 | 175.24229 | 30255 ft | 382 kts | 201° |
| 2026-04-25 05:24 | -41.06422 | 175.21477 | 30254 ft | 369 kts | 201° |
| 2026-04-25 05:24 | -41.11060 | 175.18805 | 30250 ft | 359 kts | 201° |
| 2026-04-25 05:25 | -41.15642 | 175.16415 | 30259 ft | 350 kts | 192° |
| 2026-04-25 05:25 | -41.20438 | 175.15915 | 30192 ft | 345 kts | 176° |
| 2026-04-25 05:26 | -41.25131 | 175.17124 | 30063 ft | 344 kts | 161° |
| 2026-04-25 05:26 | -41.29408 | 175.19980 | 29916 ft | 346 kts | 147° |
| 2026-04-25 05:26 | -41.31317 | 175.21997 | 29417 ft | 358 kts | 138° |
| 2026-04-25 05:27 | -41.33029 | 175.24419 | 29301 ft | 359 kts | 131° |
| 2026-04-25 05:27 | -41.35594 | 175.30128 | 29077 ft | 363 kts | 115° |
| 2026-04-25 05:27 | -41.36392 | 175.33317 | 28976 ft | 365 kts | 107° |
| 2026-04-25 05:28 | -41.36838 | 175.36644 | 28896 ft | 366 kts | 98° |
| 2026-04-25 05:28 | -41.36611 | 175.43431 | 28706 ft | 371 kts | 82° |
| 2026-04-25 05:29 | -41.34876 | 175.49908 | 28545 ft | 374 kts | 64° |
| 2026-04-25 05:29 | -41.31753 | 175.55467 | 28381 ft | 378 kts | 46° |
| 2026-04-25 05:30 | -41.27492 | 175.59556 | 28233 ft | 380 kts | 28° |
| 2026-04-25 05:30 | -41.22481 | 175.61763 | 28091 ft | 382 kts | 10° |
| 2026-04-25 05:31 | -41.17190 | 175.61866 | 27960 ft | 381 kts | 352° |
| 2026-04-25 05:31 | -41.14578 | 175.61252 | 27885 ft | 381 kts | 350° |
| 2026-04-25 05:31 | -41.12003 | 175.60664 | 27823 ft | 381 kts | 350° |
| 2026-04-25 05:31 | -41.09399 | 175.60068 | 27647 ft | 378 kts | 350° |
| 2026-04-25 05:32 | -41.06815 | 175.59466 | 27109 ft | 377 kts | 350° |
| 2026-04-25 05:32 | -41.04243 | 175.58870 | 26655 ft | 374 kts | 350° |
| 2026-04-25 05:32 | -41.01689 | 175.58275 | 26211 ft | 371 kts | 350° |
| 2026-04-25 05:32 | -40.99159 | 175.57694 | 25787 ft | 368 kts | 350° |
| 2026-04-25 05:33 | -40.96644 | 175.57112 | 25372 ft | 365 kts | 350° |
| 2026-04-25 05:33 | -40.94147 | 175.56535 | 24971 ft | 363 kts | 350° |
| 2026-04-25 05:33 | -40.91671 | 175.55965 | 24588 ft | 360 kts | 350° |
| 2026-04-25 05:33 | -40.89211 | 175.55396 | 24218 ft | 358 kts | 350° |
| 2026-04-25 05:34 | -40.86745 | 175.55198 | 23835 ft | 355 kts | 6° |
| 2026-04-25 05:34 | -40.84316 | 175.55639 | 23348 ft | 353 kts | 1° |
| 2026-04-25 05:34 | -40.81967 | 175.54844 | 22902 ft | 350 kts | 331° |
| 2026-04-25 05:34 | -40.80170 | 175.52755 | 22476 ft | 345 kts | 304° |
| 2026-04-25 05:35 | -40.79142 | 175.49933 | 22059 ft | 340 kts | 288° |
| 2026-04-25 05:35 | -40.78419 | 175.46977 | 21655 ft | 337 kts | 284° |
| 2026-04-25 05:35 | -40.77792 | 175.44002 | 21261 ft | 335 kts | 283° |
| 2026-04-25 05:35 | -40.77198 | 175.41041 | 20889 ft | 335 kts | 283° |
| 2026-04-25 05:36 | -40.76584 | 175.37948 | 20888 ft | 363 kts | 283° |
| 2026-04-25 05:36 | -40.75959 | 175.34752 | 20904 ft | 350 kts | 283° |
| 2026-04-25 05:36 | -40.75360 | 175.31728 | 20863 ft | 332 kts | 283° |
| 2026-04-25 05:36 | -40.74782 | 175.28793 | 20396 ft | 330 kts | 282° |
| 2026-04-25 05:37 | -40.74664 | 175.25822 | 19947 ft | 324 kts | 256° |
| 2026-04-25 05:37 | -40.75636 | 175.23221 | 19480 ft | 316 kts | 227° |
| 2026-04-25 05:37 | -40.77409 | 175.21615 | 19021 ft | 310 kts | 198° |
| 2026-04-25 05:37 | -40.79582 | 175.21158 | 18854 ft | 335 kts | 184° |
| 2026-04-25 05:38 | -40.82037 | 175.21378 | 18866 ft | 364 kts | 166° |
| 2026-04-25 05:38 | -40.83501 | 175.22022 | 18883 ft | 349 kts | 158° |
| 2026-04-25 05:38 | -40.85636 | 175.23290 | 18883 ft | 341 kts | 155° |
| 2026-04-25 05:39 | -40.87779 | 175.24570 | 18883 ft | 335 kts | 158° |
| 2026-04-25 05:39 | -40.90001 | 175.25568 | 18871 ft | 331 kts | 164° |
| 2026-04-25 05:39 | -40.92178 | 175.26363 | 18873 ft | 327 kts | 164° |
| 2026-04-25 05:39 | -40.94398 | 175.27143 | 18880 ft | 324 kts | 171° |
| 2026-04-25 05:40 | -40.96601 | 175.26969 | 18870 ft | 323 kts | 192° |
| 2026-04-25 05:40 | -40.98722 | 175.25962 | 18632 ft | 329 kts | 202° |
| 2026-04-25 05:40 | -41.00869 | 175.24737 | 18023 ft | 343 kts | 203° |
| 2026-04-25 05:40 | -41.03099 | 175.23407 | 17157 ft | 359 kts | 203° |
| 2026-04-25 05:41 | -41.05401 | 175.22059 | 16509 ft | 365 kts | 204° |
| 2026-04-25 05:41 | -41.07617 | 175.20381 | 15862 ft | 369 kts | 211° |
| 2026-04-25 05:41 | -41.09827 | 175.18626 | 15208 ft | 372 kts | 210° |
| 2026-04-25 05:41 | -41.12023 | 175.16894 | 14561 ft | 360 kts | 210° |
| 2026-04-25 05:42 | -41.14131 | 175.15233 | 13920 ft | 346 kts | 210° |
| 2026-04-25 05:42 | -41.16163 | 175.13615 | 13302 ft | 335 kts | 210° |
| 2026-04-25 05:42 | -41.18132 | 175.12055 | 12721 ft | 325 kts | 210° |
| 2026-04-25 05:42 | -41.20047 | 175.10534 | 12152 ft | 317 kts | 210° |
| 2026-04-25 05:43 | -41.21923 | 175.09043 | 11598 ft | 311 kts | 210° |
| 2026-04-25 05:43 | -41.23772 | 175.07577 | 11102 ft | 309 kts | 210° |
| 2026-04-25 05:43 | -41.25581 | 175.06134 | 11013 ft | 297 kts | 210° |
| 2026-04-25 05:43 | -41.27321 | 175.04753 | 11007 ft | 286 kts | 210° |
| 2026-04-25 05:44 | -41.28999 | 175.03411 | 10997 ft | 278 kts | 210° |
| 2026-04-25 05:44 | -41.30640 | 175.02107 | 10974 ft | 272 kts | 211° |
| 2026-04-25 05:44 | -41.32210 | 175.00673 | 10690 ft | 277 kts | 213° |
| 2026-04-25 05:44 | -41.33851 | 174.99253 | 10306 ft | 289 kts | 211° |
| 2026-04-25 05:45 | -41.35567 | 174.97761 | 9888 ft | 300 kts | 212° |
| 2026-04-25 05:45 | -41.37330 | 174.96196 | 9458 ft | 309 kts | 213° |
| 2026-04-25 05:45 | -41.39132 | 174.94585 | 9106 ft | 313 kts | 213° |
| 2026-04-25 05:45 | -41.40925 | 174.92985 | 8818 ft | 306 kts | 213° |
| 2026-04-25 05:46 | -41.42709 | 174.91567 | 8143 ft | 293 kts | 202° |
| 2026-04-25 05:46 | -41.44659 | 174.91047 | 7471 ft | 278 kts | 185° |
| 2026-04-25 05:46 | -41.46519 | 174.90777 | 6929 ft | 258 kts | 191° |
| 2026-04-25 05:46 | -41.48076 | 174.89950 | 6559 ft | 238 kts | 217° |
| 2026-04-25 05:47 | -41.49215 | 174.88403 | 6176 ft | 225 kts | 232° |
| 2026-04-25 05:47 | -41.49879 | 174.86563 | 5632 ft | 221 kts | 249° |
| 2026-04-25 05:47 | -41.50081 | 174.84528 | 4294 ft | 227 kts | 270° |
| 2026-04-25 05:47 | -41.49822 | 174.82427 | 3419 ft | 226 kts | 290° |
| 2026-04-25 05:48 | -41.48977 | 174.80845 | 3156 ft | 197 kts | 315° |
| 2026-04-25 05:48 | -41.47863 | 174.79966 | 2900 ft | 179 kts | 339° |
| 2026-04-25 05:48 | -41.46664 | 174.79730 | 2657 ft | 182 kts | 359° |
| 2026-04-25 05:48 | -41.45319 | 174.79827 | 2402 ft | 204 kts | 0° |
| 2026-04-25 05:49 | -41.43863 | 174.79929 | 2119 ft | 214 kts | 1° |
| 2026-04-25 05:49 | -41.42368 | 174.80034 | 1821 ft | 216 kts | 1° |
| 2026-04-25 05:49 | -41.40871 | 174.80135 | 1513 ft | 212 kts | 0° |
| 2026-04-25 05:49 | -41.39441 | 174.80232 | 1211 ft | 202 kts | 2° |
| 2026-04-25 05:50 | -41.38058 | 174.80324 | 925 ft | 192 kts | 2° |
| 2026-04-25 05:50 | -41.36969 | 174.80406 | 718 ft | 127 kts | 2° |
| 2026-04-25 05:50 | -41.36151 | 174.80507 | 595 ft | 113 kts | 3° |
| 2026-04-25 05:50 | -41.35405 | 174.80562 | 442 ft | 108 kts | 0° |
| 2026-04-25 05:51 | -41.34650 | 174.80575 | 330 ft | 106 kts | 2° |
| 2026-04-25 05:51 | -41.33924 | 174.80607 | 162 ft | 103 kts | 2° |
| 2026-04-25 05:51 | -41.33243 | 174.80656 | 62 ft | 90 kts | 1° |
| 2026-04-25 05:51 | -41.32448 | 174.80728 | 486 ft | 137 kts | 2° |
| 2026-04-25 05:52 | -41.31403 | 174.80809 | 1165 ft | 160 kts | 1° |
| 2026-04-25 05:52 | -41.30226 | 174.80892 | 1749 ft | 163 kts | 359° |
| 2026-04-25 05:52 | -41.29080 | 174.80965 | 1628 ft | 173 kts | 0° |
| 2026-04-25 05:52 | -41.27910 | 174.81058 | 1750 ft | 165 kts | 3° |
| 2026-04-25 05:53 | -41.26731 | 174.81263 | 1767 ft | 166 kts | 7° |
| 2026-04-25 05:53 | -41.25546 | 174.81454 | 2312 ft | 173 kts | 2° |
| 2026-04-25 05:53 | -41.24372 | 174.81607 | 2881 ft | 170 kts | 2° |
| 2026-04-25 05:53 | -41.23243 | 174.82200 | 2989 ft | 191 kts | 37° |
| 2026-04-25 05:54 | -41.22531 | 174.83695 | 3001 ft | 203 kts | 71° |
| 2026-04-25 05:54 | -41.22712 | 174.85545 | 2968 ft | 212 kts | 120° |
| 2026-04-25 05:54 | -41.25205 | 174.86657 | 3042 ft | 192 kts | 186° |
| 2026-04-25 05:55 | -41.26534 | 174.86414 | 3019 ft | 193 kts | 192° |
| 2026-04-25 05:55 | -41.27856 | 174.86132 | 3009 ft | 193 kts | 192° |
| 2026-04-25 05:55 | -41.29189 | 174.85874 | 3023 ft | 194 kts | 191° |
| 2026-04-25 05:55 | -41.30528 | 174.85617 | 3017 ft | 195 kts | 191° |
| 2026-04-25 05:56 | -41.31968 | 174.85334 | 2989 ft | 239 kts | 192° |
| 2026-04-25 05:56 | -41.33818 | 174.84946 | 3000 ft | 280 kts | 191° |
| 2026-04-25 05:56 | -41.35644 | 174.84562 | 2995 ft | 260 kts | 191° |
| 2026-04-25 05:56 | -41.37422 | 174.84194 | 3001 ft | 258 kts | 191° |
| 2026-04-25 05:57 | -41.39185 | 174.83819 | 3007 ft | 253 kts | 191° |
| 2026-04-25 05:57 | -41.40904 | 174.83444 | 3020 ft | 247 kts | 192° |
| 2026-04-25 05:57 | -41.42430 | 174.82562 | 2859 ft | 244 kts | 222° |
| 2026-04-25 05:57 | -41.43199 | 174.80601 | 2775 ft | 245 kts | 271° |
| 2026-04-25 05:58 | -41.42080 | 174.79427 | 3018 ft | 241 kts | 1° |
| 2026-04-25 05:58 | -41.40466 | 174.79721 | 2502 ft | 221 kts | 7° |
| 2026-04-25 05:58 | -41.38993 | 174.80086 | 1550 ft | 209 kts | 6° |
| 2026-04-25 05:58 | -41.37608 | 174.80292 | 1088 ft | 184 kts | 3° |
| 2026-04-25 05:59 | -41.36470 | 174.80435 | 945 ft | 133 kts | 2° |
| 2026-04-25 05:59 | -41.35658 | 174.80509 | 537 ft | 106 kts | 1° |
| 2026-04-25 05:59 | -41.34943 | 174.80559 | 306 ft | 107 kts | 1° |
| 2026-04-25 05:59 | -41.34185 | 174.80605 | 237 ft | 99 kts | 0° |
| 2026-04-25 06:00 | -41.33495 | 174.80640 | 60 ft | 94 kts | 0° |
| 2026-04-25 06:00 | -41.32913 | 174.80672 | 22 ft | 70 kts | 4° |
| 2026-04-25 06:00 | -41.32681 | 174.80651 | 22 ft | 9 kts | 270° |
| 2026-04-25 06:00 | -41.32678 | 174.80585 | 20 ft | 7 kts | 274° |
| 2026-04-25 06:01 | -41.32696 | 174.80544 | 21 ft | 8 kts | 170° |
| 2026-04-25 06:01 | -41.32726 | 174.80523 | 20 ft | 4 kts | 264° |
| 2026-04-25 06:01 | -41.32744 | 174.80481 | 20 ft | 9 kts | 188° |
| 2026-04-25 06:01 | -41.32775 | 174.80498 | 22 ft | 0 kts | 123° |
| 2026-04-25 06:04 | -41.32765 | 174.80549 | 21 ft | 8 kts | 9° |
| 2026-04-25 06:05 | -41.32682 | 174.80548 | 22 ft | 10 kts | 12° |
| 2026-04-25 06:05 | -41.32611 | 174.80560 | 20 ft | 4 kts | 327° |
| 2026-04-25 06:05 | -41.32602 | 174.80494 | 20 ft | 0 kts | 273° |
| 2026-04-25 06:05 | -41.32602 | 174.80484 | 20 ft | 0 kts | 272° |